createdAt,value
2022-07-26T00:01:21.341Z,18.70
2022-07-26T00:03:49.520Z,18.70
2022-07-26T00:06:18.890Z,18.60
2022-07-26T00:08:46.146Z,18.60
2022-07-26T00:11:13.226Z,18.70
2022-07-26T00:13:40.308Z,18.70
2022-07-26T00:16:07.430Z,18.60
2022-07-26T00:18:34.412Z,18.50
2022-07-26T00:21:01.281Z,18.50
2022-07-26T00:23:28.372Z,18.50
2022-07-26T00:25:55.260Z,18.50
2022-07-26T00:28:22.186Z,18.50
2022-07-26T00:30:49.031Z,18.50
2022-07-26T00:33:16.032Z,18.50
2022-07-26T00:35:42.883Z,18.60
2022-07-26T00:38:09.836Z,18.60
2022-07-26T00:40:36.734Z,18.50
2022-07-26T00:43:03.649Z,18.60
2022-07-26T00:45:30.560Z,18.60
2022-07-26T00:47:57.416Z,18.60
2022-07-26T00:50:24.359Z,18.50
2022-07-26T00:52:51.328Z,18.50
2022-07-26T00:55:18.843Z,18.60
2022-07-26T00:57:46.102Z,18.50
2022-07-26T01:00:16.897Z,18.60
2022-07-26T01:02:44.370Z,18.50
2022-07-26T01:05:11.315Z,18.50
2022-07-26T01:07:38.833Z,18.60
2022-07-26T01:10:10.649Z,18.50
2022-07-26T01:12:38.126Z,18.60
2022-07-26T01:15:06.166Z,18.60
2022-07-26T01:17:33.043Z,18.60
2022-07-26T01:20:04.054Z,18.50
2022-07-26T01:22:30.994Z,18.60
2022-07-26T01:24:57.849Z,18.60
2022-07-26T01:27:24.897Z,18.50
2022-07-26T01:29:51.947Z,18.50
2022-07-26T01:32:19.727Z,18.60
2022-07-26T01:34:47.164Z,18.60
2022-07-26T01:37:14.140Z,18.60
2022-07-26T01:39:41.049Z,18.50
2022-07-26T01:42:07.975Z,18.50
2022-07-26T01:44:37.799Z,18.60
2022-07-26T01:47:04.634Z,18.70
2022-07-26T01:49:31.478Z,18.70
2022-07-26T01:51:58.271Z,18.60
2022-07-26T01:54:25.135Z,18.60
2022-07-26T01:56:51.932Z,18.80
2022-07-26T01:59:18.836Z,18.80
2022-07-26T02:01:45.627Z,18.70
2022-07-26T02:04:32.421Z,18.70
2022-07-26T02:06:59.624Z,18.60
2022-07-26T02:09:26.380Z,18.60
2022-07-26T02:11:56.714Z,18.70
2022-07-26T02:14:25.973Z,18.80
2022-07-26T02:16:59.976Z,18.90
2022-07-26T02:19:28.242Z,18.80
2022-07-26T02:21:55.276Z,18.80
2022-07-26T02:24:22.190Z,18.80
2022-07-26T02:26:48.989Z,18.80
2022-07-26T02:29:16.087Z,18.80
2022-07-26T02:31:43.003Z,18.80
2022-07-26T02:34:15.714Z,18.70
2022-07-26T02:36:42.627Z,18.80
2022-07-26T02:39:09.721Z,18.80
2022-07-26T02:41:36.782Z,18.80
2022-07-26T02:44:03.806Z,18.80
2022-07-26T02:46:30.701Z,18.80
2022-07-26T02:48:57.746Z,18.80
2022-07-26T02:51:24.555Z,18.80
2022-07-26T02:53:51.450Z,18.80
2022-07-26T02:56:18.204Z,18.70
2022-07-26T02:58:45.027Z,18.70
2022-07-26T03:01:12.597Z,18.70
2022-07-26T03:03:40.353Z,18.70
2022-07-26T03:06:07.275Z,18.80
2022-07-26T03:08:34.123Z,18.90
2022-07-26T03:11:01.016Z,18.90
2022-07-26T03:13:27.928Z,19.00
2022-07-26T03:15:54.816Z,19.10
2022-07-26T03:18:21.737Z,19.10
2022-07-26T03:20:49.930Z,19.10
2022-07-26T03:23:17.164Z,19.20
2022-07-26T03:25:44.103Z,19.30
2022-07-26T03:28:13.660Z,19.20
2022-07-26T03:30:42.954Z,19.20
2022-07-26T03:33:09.793Z,19.20
2022-07-26T03:35:36.924Z,19.20
2022-07-26T03:38:03.879Z,19.20
2022-07-26T03:40:30.849Z,19.20
2022-07-26T03:42:57.659Z,19.20
2022-07-26T03:45:24.682Z,19.10
2022-07-26T03:47:51.625Z,19.20
2022-07-26T03:50:18.484Z,19.20
2022-07-26T03:52:45.339Z,19.20
2022-07-26T03:55:30.795Z,19.30
2022-07-26T03:57:57.635Z,19.20
2022-07-26T04:00:24.520Z,19.20
2022-07-26T04:02:51.403Z,19.20
2022-07-26T04:05:21.809Z,19.30
2022-07-26T04:07:52.795Z,19.30
2022-07-26T04:10:21.755Z,19.30
2022-07-26T04:12:49.292Z,19.30
2022-07-26T04:15:17.230Z,19.40
2022-07-26T04:17:44.370Z,19.40
2022-07-26T04:20:12.463Z,19.40
2022-07-26T04:22:40.522Z,19.30
2022-07-26T04:25:08.829Z,19.30
2022-07-26T04:27:36.561Z,19.20
2022-07-26T04:30:04.704Z,19.30
2022-07-26T04:32:31.739Z,19.30
2022-07-26T04:34:58.568Z,19.30
2022-07-26T04:37:25.565Z,19.30
2022-07-26T04:39:55.031Z,19.40
2022-07-26T04:42:22.234Z,19.30
2022-07-26T04:44:49.150Z,19.30
2022-07-26T04:47:16.140Z,19.30
2022-07-26T04:49:42.983Z,19.40
2022-07-26T04:52:09.862Z,19.40
2022-07-26T04:54:36.701Z,19.40
2022-07-26T04:57:03.763Z,19.40
2022-07-26T04:59:32.541Z,19.50
2022-07-26T05:02:00.033Z,19.40
2022-07-26T05:04:27.017Z,19.40
2022-07-26T05:06:53.838Z,19.40
2022-07-26T05:09:20.667Z,19.40
2022-07-26T05:11:47.486Z,19.40
2022-07-26T05:14:14.358Z,19.50
2022-07-26T05:16:44.462Z,19.60
2022-07-26T05:19:13.578Z,19.60
2022-07-26T05:21:40.619Z,19.60
2022-07-26T05:24:08.286Z,19.60
2022-07-26T05:26:35.404Z,19.70
2022-07-26T05:29:02.368Z,19.60
2022-07-26T05:31:29.469Z,19.70
2022-07-26T05:33:56.360Z,19.80
2022-07-26T05:36:23.228Z,19.70
2022-07-26T05:38:50.344Z,19.70
2022-07-26T05:41:17.595Z,19.80
2022-07-26T05:43:44.431Z,19.80
2022-07-26T05:46:12.511Z,19.90
2022-07-26T05:48:41.666Z,19.90
2022-07-26T05:51:09.640Z,20.00
2022-07-26T05:53:36.721Z,20.00
2022-07-26T05:56:04.396Z,20.10
2022-07-26T05:58:31.266Z,20.00
2022-07-26T06:00:58.145Z,20.10
2022-07-26T06:03:25.881Z,20.00
2022-07-26T06:05:56.790Z,20.20
2022-07-26T06:08:25.638Z,20.30
2022-07-26T06:10:53.622Z,20.50
2022-07-26T06:13:20.622Z,20.50
2022-07-26T06:15:48.020Z,20.60
2022-07-26T06:18:15.019Z,20.40
2022-07-26T06:20:46.452Z,20.60
2022-07-26T06:23:14.072Z,20.50
2022-07-26T06:25:41.081Z,20.60
2022-07-26T06:28:10.884Z,20.50
2022-07-26T06:30:39.075Z,20.60
2022-07-26T06:33:07.752Z,20.60
2022-07-26T06:35:35.988Z,20.40
2022-07-26T06:38:03.625Z,20.30
2022-07-26T06:40:30.467Z,20.40
2022-07-26T06:43:01.280Z,20.50
2022-07-26T06:45:31.228Z,20.60
2022-07-26T06:47:58.128Z,20.70
2022-07-26T06:50:25.615Z,20.80
2022-07-26T06:52:52.683Z,20.70
2022-07-26T06:55:19.534Z,20.70
2022-07-26T06:57:50.323Z,20.70
2022-07-26T07:00:18.144Z,20.90
2022-07-26T07:02:45.261Z,20.90
2022-07-26T07:05:12.890Z,21.00
2022-07-26T07:07:42.124Z,21.00
2022-07-26T07:10:10.454Z,21.20
2022-07-26T07:12:40.143Z,21.40
2022-07-26T07:15:07.496Z,21.40
2022-07-26T07:17:35.019Z,21.60
2022-07-26T07:20:03.756Z,21.80
2022-07-26T07:22:30.766Z,21.70
2022-07-26T07:24:58.214Z,21.60
2022-07-26T07:27:27.300Z,21.60
2022-07-26T07:29:54.325Z,21.60
2022-07-26T07:32:24.614Z,21.70
2022-07-26T07:34:51.635Z,21.80
2022-07-26T07:37:20.185Z,22.00
2022-07-26T07:39:50.087Z,21.90
2022-07-26T07:42:18.433Z,21.80
2022-07-26T07:44:45.348Z,21.60
2022-07-26T07:47:12.401Z,21.60
2022-07-26T07:49:39.242Z,21.50
2022-07-26T07:52:06.569Z,21.90
2022-07-26T07:54:33.498Z,22.20
2022-07-26T07:57:00.334Z,22.20
2022-07-26T07:59:27.504Z,22.20
2022-07-26T08:01:55.885Z,22.10
2022-07-26T08:04:22.865Z,22.00
2022-07-26T08:06:51.119Z,22.00
2022-07-26T08:09:19.194Z,21.90
2022-07-26T08:11:50.521Z,22.10
2022-07-26T08:14:18.843Z,22.00
2022-07-26T08:16:45.906Z,21.80
2022-07-26T08:19:13.268Z,21.60
2022-07-26T08:21:43.078Z,21.50
2022-07-26T08:24:10.850Z,21.60
2022-07-26T08:26:38.192Z,21.80
2022-07-26T08:29:05.214Z,21.80
2022-07-26T08:31:32.371Z,22.00
2022-07-26T08:33:59.309Z,22.30
2022-07-26T08:36:31.808Z,22.30
2022-07-26T08:39:01.027Z,22.40
2022-07-26T08:41:28.565Z,22.70
2022-07-26T08:43:55.381Z,23.00
2022-07-26T08:46:26.462Z,23.00
2022-07-26T08:48:57.641Z,22.60
2022-07-26T08:51:25.764Z,23.10
2022-07-26T08:54:05.188Z,23.50
2022-07-26T08:56:40.683Z,24.00
2022-07-26T08:59:20.745Z,24.50
2022-07-26T09:02:14.294Z,24.80
2022-07-26T09:04:46.333Z,25.10
2022-07-26T09:07:16.740Z,25.20
2022-07-26T09:09:57.512Z,25.50
2022-07-26T09:12:25.889Z,24.90
2022-07-26T09:14:53.641Z,25.20
2022-07-26T09:17:22.181Z,25.80
2022-07-26T09:20:04.644Z,24.70
2022-07-26T09:22:31.548Z,24.10
2022-07-26T09:24:58.440Z,24.10
2022-07-26T09:27:33.582Z,24.00
2022-07-26T09:30:06.537Z,24.20
2022-07-26T09:32:33.938Z,24.00
2022-07-26T09:35:44.613Z,24.00
2022-07-26T09:38:13.063Z,23.80
2022-07-26T09:40:40.217Z,23.60
2022-07-26T09:43:07.657Z,24.20
2022-07-26T09:45:37.094Z,24.60
2022-07-26T09:48:04.655Z,25.30
2022-07-26T09:50:33.207Z,25.20
2022-07-26T09:53:12.623Z,25.00
2022-07-26T09:56:02.682Z,25.60
2022-07-26T09:58:30.458Z,25.60
2022-07-26T10:01:02.093Z,25.80
2022-07-26T10:03:31.428Z,26.30
2022-07-26T10:05:59.868Z,26.30
2022-07-26T10:08:27.358Z,26.80
2022-07-26T10:11:08.734Z,26.90
2022-07-26T10:13:35.719Z,26.60
2022-07-26T10:16:02.705Z,26.70
2022-07-26T10:18:43.972Z,26.70
2022-07-26T10:21:16.760Z,26.70
2022-07-26T10:23:45.611Z,26.90
2022-07-26T10:26:36.280Z,27.50
2022-07-26T10:29:18.179Z,27.50
2022-07-26T10:31:50.194Z,27.30
2022-07-26T10:34:37.981Z,28.90
2022-07-26T10:37:07.740Z,28.50
2022-07-26T10:39:35.248Z,28.40
2022-07-26T10:42:10.507Z,29.10
2022-07-26T10:44:39.537Z,30.50
2022-07-26T10:47:09.453Z,30.80
2022-07-26T10:49:45.510Z,31.40
2022-07-26T10:52:18.289Z,30.30
2022-07-26T10:55:11.453Z,31.10
2022-07-26T10:57:40.912Z,30.80
2022-07-26T11:00:28.024Z,30.90
2022-07-26T11:02:59.533Z,31.30
2022-07-26T11:05:34.834Z,31.60
2022-07-26T11:08:09.155Z,31.60
2022-07-26T11:10:42.355Z,32.20
2022-07-26T11:13:11.887Z,32.10
2022-07-26T11:15:45.204Z,32.30
2022-07-26T11:18:35.630Z,32.00
2022-07-26T11:21:13.712Z,30.60
2022-07-26T11:23:45.681Z,30.70
2022-07-26T11:26:19.668Z,30.80
2022-07-26T11:28:58.676Z,30.10
2022-07-26T11:31:52.030Z,29.70
2022-07-26T11:34:25.176Z,29.00
2022-07-26T11:36:54.744Z,29.10
2022-07-26T11:39:25.855Z,28.60
2022-07-26T11:41:58.428Z,28.10
2022-07-26T11:44:25.848Z,28.30
2022-07-26T11:46:53.077Z,28.50
2022-07-26T11:49:20.960Z,27.90
2022-07-26T11:51:59.068Z,27.90
2022-07-26T11:54:47.027Z,27.90
2022-07-26T11:57:14.439Z,27.40
2022-07-26T11:59:43.684Z,27.70
2022-07-26T12:02:11.061Z,27.90
2022-07-26T12:04:40.586Z,27.20
2022-07-26T12:07:11.492Z,27.20
2022-07-26T12:09:38.253Z,26.90
2022-07-26T12:12:08.417Z,26.60
2022-07-26T12:14:40.199Z,26.50
2022-07-26T12:17:18.268Z,26.40
2022-07-26T12:19:45.876Z,26.50
2022-07-26T12:22:14.123Z,26.40
2022-07-26T12:24:51.534Z,26.10
2022-07-26T12:27:26.635Z,26.30
2022-07-26T12:29:56.548Z,27.10
2022-07-26T12:32:31.115Z,27.00
2022-07-26T12:35:14.650Z,27.70
2022-07-26T12:37:47.687Z,28.20
2022-07-26T12:40:17.428Z,29.40
2022-07-26T12:42:51.823Z,29.10
2022-07-26T12:45:24.390Z,29.20
2022-07-26T12:47:53.025Z,29.20
2022-07-26T12:50:22.709Z,29.00
2022-07-26T12:52:49.900Z,29.00
2022-07-26T12:55:21.542Z,29.40
2022-07-26T12:57:49.414Z,29.40
2022-07-26T13:00:22.702Z,28.80
2022-07-26T13:02:49.791Z,28.30
2022-07-26T13:05:16.837Z,28.70
2022-07-26T13:07:43.929Z,28.40
2022-07-26T13:12:58.097Z,27.80
2022-07-26T13:15:36.211Z,26.50
2022-07-26T13:18:07.709Z,26.20
2022-07-26T13:20:36.682Z,26.60
2022-07-26T13:23:03.635Z,27.20
2022-07-26T13:25:38.645Z,28.00
2022-07-26T13:28:07.096Z,28.30
2022-07-26T13:30:34.121Z,28.60
2022-07-26T13:33:01.002Z,28.80
2022-07-26T13:35:28.203Z,28.20
2022-07-26T13:37:55.111Z,28.20
2022-07-26T13:40:21.969Z,28.20
2022-07-26T13:42:50.142Z,28.20
2022-07-26T13:45:17.165Z,28.00
2022-07-26T13:47:44.028Z,28.00
2022-07-26T13:50:11.052Z,28.10
2022-07-26T13:52:38.122Z,28.30
2022-07-26T13:55:06.761Z,27.70
2022-07-26T13:57:47.897Z,27.80
2022-07-26T14:00:20.704Z,27.80
2022-07-26T14:02:47.767Z,27.80
2022-07-26T14:05:14.702Z,27.70
2022-07-26T14:07:42.535Z,27.10
2022-07-26T14:10:09.866Z,26.60
2022-07-26T14:12:38.200Z,26.50
2022-07-26T14:15:11.516Z,26.70
2022-07-26T14:17:40.072Z,26.20
2022-07-26T14:20:07.472Z,26.00
2022-07-26T14:22:34.426Z,26.10
2022-07-26T14:25:01.368Z,26.70
2022-07-26T14:27:28.216Z,26.30
2022-07-26T14:29:55.031Z,26.60
2022-07-26T14:32:22.626Z,27.00
2022-07-26T14:34:49.974Z,27.20
2022-07-26T14:37:42.427Z,27.00
2022-07-26T14:40:05.863Z,27.00
2022-07-26T14:42:33.284Z,27.20
2022-07-26T14:45:00.150Z,27.10
2022-07-26T14:47:27.067Z,27.20
2022-07-26T14:49:53.846Z,27.10
2022-07-26T14:52:20.775Z,26.40
2022-07-26T14:54:47.755Z,26.20
2022-07-26T14:57:14.625Z,26.40
2022-07-26T14:59:41.528Z,26.80
2022-07-26T15:02:10.265Z,26.90
2022-07-26T15:04:37.177Z,26.90
2022-07-26T15:07:04.049Z,27.30
2022-07-26T15:09:30.863Z,27.20
2022-07-26T15:11:58.228Z,27.10
2022-07-26T15:14:25.060Z,26.80
2022-07-26T15:16:51.947Z,26.70
2022-07-26T15:19:23.618Z,26.50
2022-07-26T15:21:54.594Z,26.50
2022-07-26T15:24:23.319Z,26.50
2022-07-26T15:26:51.362Z,26.30
2022-07-26T15:29:18.217Z,26.40
2022-07-26T15:31:46.482Z,26.70
2022-07-26T15:34:13.838Z,26.50
2022-07-26T15:36:41.120Z,26.60
2022-07-26T15:39:23.507Z,26.60
2022-07-26T15:41:50.825Z,26.10
2022-07-26T15:44:20.068Z,25.90
2022-07-26T15:46:49.215Z,25.80
2022-07-26T15:49:17.043Z,25.70
2022-07-26T15:51:44.633Z,25.80
2022-07-26T15:54:14.193Z,26.10
2022-07-26T15:56:42.690Z,26.10
2022-07-26T15:59:09.826Z,25.80
2022-07-26T16:01:37.402Z,25.80
2022-07-26T16:04:05.264Z,25.80
2022-07-26T16:06:33.198Z,25.90
2022-07-26T16:09:19.263Z,25.80
2022-07-26T16:11:47.839Z,25.80
2022-07-26T16:14:16.007Z,25.70
2022-07-26T16:16:43.098Z,25.80
2022-07-26T16:19:11.138Z,25.80
2022-07-26T16:21:38.488Z,26.10
2022-07-26T16:24:07.414Z,26.10
2022-07-26T16:26:35.218Z,26.20
2022-07-26T16:29:02.342Z,26.50
2022-07-26T16:31:29.637Z,26.40
2022-07-26T16:33:56.550Z,26.10
2022-07-26T16:36:23.892Z,26.00
2022-07-26T16:38:50.781Z,26.00
2022-07-26T16:41:17.745Z,26.00
2022-07-26T16:43:44.671Z,26.10
2022-07-26T16:46:11.519Z,26.00
2022-07-26T16:48:38.409Z,25.90
2022-07-26T16:51:05.407Z,25.70
2022-07-26T16:53:32.266Z,25.80
2022-07-26T16:55:59.196Z,25.90
2022-07-26T16:58:26.089Z,25.80
2022-07-26T17:00:53.308Z,25.60
2022-07-26T17:03:20.186Z,25.50
2022-07-26T17:05:47.292Z,25.50
2022-07-26T17:08:15.277Z,25.60
2022-07-26T17:10:42.535Z,25.50
2022-07-26T17:13:09.542Z,25.30
2022-07-26T17:15:36.858Z,25.10
2022-07-26T17:18:03.910Z,24.90
2022-07-26T17:20:30.919Z,25.00
2022-07-26T17:22:57.735Z,24.90
2022-07-26T17:25:24.611Z,24.80
2022-07-26T17:27:51.426Z,24.90
2022-07-26T17:30:18.273Z,24.70
2022-07-26T17:32:45.170Z,24.70
2022-07-26T17:35:12.100Z,24.70
2022-07-26T17:37:40.093Z,24.70
2022-07-26T17:40:08.454Z,24.60
2022-07-26T17:42:36.906Z,24.60
2022-07-26T17:45:05.864Z,24.70
2022-07-26T17:47:32.738Z,24.70
2022-07-26T17:52:48.963Z,24.50
2022-07-26T17:55:16.473Z,24.50
2022-07-26T17:57:43.417Z,24.30
2022-07-26T18:00:10.993Z,24.10
2022-07-26T18:02:37.896Z,24.00
2022-07-26T18:05:04.986Z,24.00
2022-07-26T18:07:31.990Z,24.00
2022-07-26T18:09:58.977Z,24.00
2022-07-26T18:12:25.795Z,24.00
2022-07-26T18:14:52.694Z,24.00
2022-07-26T18:17:19.550Z,24.10
2022-07-26T18:19:46.460Z,24.10
2022-07-26T18:22:13.283Z,23.90
2022-07-26T18:24:40.248Z,23.90
2022-07-26T18:27:07.268Z,23.70
2022-07-26T18:29:34.069Z,23.70
2022-07-26T18:32:02.182Z,23.70
2022-07-26T18:34:29.078Z,23.60
2022-07-26T18:36:57.154Z,23.60
2022-07-26T18:39:23.951Z,23.60
2022-07-26T18:41:50.734Z,23.60
2022-07-26T18:44:17.856Z,23.50
2022-07-26T18:46:44.714Z,23.40
2022-07-26T18:49:15.899Z,23.40
2022-07-26T18:51:48.838Z,23.40
2022-07-26T18:54:16.574Z,23.20
2022-07-26T18:56:43.818Z,23.10
2022-07-26T18:59:11.122Z,23.10
2022-07-26T19:01:38.384Z,23.00
2022-07-26T19:04:07.223Z,23.00
2022-07-26T19:06:35.652Z,23.00
2022-07-26T19:09:02.528Z,23.00
2022-07-26T19:11:30.272Z,23.00
2022-07-26T19:13:57.119Z,23.00
2022-07-26T19:16:26.608Z,23.00
2022-07-26T19:18:57.319Z,22.90
2022-07-26T19:21:24.594Z,22.90
2022-07-26T19:23:51.697Z,22.80
2022-07-26T19:26:18.627Z,22.80
2022-07-26T19:28:45.570Z,22.70
2022-07-26T19:31:12.369Z,22.70
2022-07-26T19:33:39.281Z,22.60
2022-07-26T19:36:06.456Z,22.50
2022-07-26T19:38:33.408Z,22.40
2022-07-26T19:41:01.346Z,22.30
2022-07-26T19:43:28.655Z,22.20
2022-07-26T19:45:55.821Z,22.10
2022-07-26T19:48:22.719Z,22.10
2022-07-26T19:50:51.273Z,22.00
2022-07-26T19:53:18.323Z,22.00
2022-07-26T19:55:45.233Z,21.90
2022-07-26T19:58:12.212Z,21.80
2022-07-26T20:00:40.306Z,21.90
2022-07-26T20:03:07.237Z,21.90
2022-07-26T20:05:35.079Z,21.90
2022-07-26T20:08:02.162Z,21.90
2022-07-26T20:10:32.240Z,21.90
2022-07-26T20:12:59.767Z,21.60
2022-07-26T20:15:26.662Z,21.60
2022-07-26T20:17:53.610Z,21.50
2022-07-26T20:20:20.569Z,21.50
2022-07-26T20:22:47.446Z,21.50
2022-07-26T20:25:21.106Z,21.40
2022-07-26T20:27:49.895Z,21.40
2022-07-26T20:30:17.495Z,21.40
2022-07-26T20:32:44.790Z,21.40
2022-07-26T20:35:12.393Z,21.30
2022-07-26T20:37:40.825Z,21.30
2022-07-26T20:40:09.190Z,21.10
2022-07-26T20:42:38.324Z,21.10
2022-07-26T20:45:11.278Z,21.10
2022-07-26T20:47:43.025Z,21.10
2022-07-26T20:50:11.866Z,21.00
2022-07-26T20:52:39.037Z,21.00
2022-07-26T20:55:06.597Z,20.80
2022-07-26T20:57:33.585Z,20.80
2022-07-26T21:00:00.512Z,20.70
2022-07-26T21:02:27.679Z,20.60
2022-07-26T21:04:54.604Z,20.50
2022-07-26T21:07:53.924Z,20.40
2022-07-26T21:10:14.675Z,20.50
2022-07-26T21:12:42.144Z,20.40
2022-07-26T21:15:09.560Z,20.40
2022-07-26T21:17:36.971Z,20.30
2022-07-26T21:20:05.657Z,20.30
2022-07-26T21:22:32.644Z,20.30
2022-07-26T21:24:59.579Z,20.20
2022-07-26T21:27:26.818Z,20.10
2022-07-26T21:29:53.719Z,20.10
2022-07-26T21:32:20.632Z,20.00
2022-07-26T21:34:47.521Z,20.00
2022-07-26T21:37:14.968Z,20.00
2022-07-26T21:39:41.944Z,19.90
2022-07-26T21:42:08.817Z,19.80
2022-07-26T21:44:35.704Z,19.70
2022-07-26T21:47:02.628Z,19.90
2022-07-26T21:49:29.794Z,19.60
2022-07-26T21:51:56.676Z,19.50
2022-07-26T21:54:23.739Z,19.50
2022-07-26T21:56:50.571Z,19.50
2022-07-26T21:59:17.392Z,19.40
2022-07-26T22:01:44.193Z,19.40
2022-07-26T22:04:11.178Z,19.40
2022-07-26T22:06:38.110Z,19.40
2022-07-26T22:09:05.409Z,19.30
2022-07-26T22:11:34.836Z,19.30
2022-07-26T22:14:01.967Z,19.20
2022-07-26T22:16:28.855Z,19.20
2022-07-26T22:18:55.673Z,19.10
2022-07-26T22:21:22.509Z,19.10
2022-07-26T22:23:49.295Z,19.00
2022-07-26T22:26:16.279Z,19.00
2022-07-26T22:28:43.214Z,19.00
2022-07-26T22:31:10.213Z,19.00
2022-07-26T22:33:37.131Z,19.10
2022-07-26T22:36:04.235Z,19.00
2022-07-26T22:38:31.477Z,19.00
2022-07-26T22:40:59.808Z,19.10
2022-07-26T22:43:26.653Z,19.10
2022-07-26T22:45:53.477Z,19.20
2022-07-26T22:48:20.491Z,19.30
2022-07-26T22:50:47.404Z,19.30
2022-07-26T22:53:14.336Z,19.30
2022-07-26T22:55:41.198Z,19.20
2022-07-26T22:58:08.039Z,19.10
2022-07-26T23:00:34.983Z,19.00
2022-07-26T23:03:01.954Z,19.00
2022-07-26T23:05:45.603Z,18.90
2022-07-26T23:08:36.243Z,18.80
2022-07-26T23:11:00.517Z,18.70
2022-07-26T23:13:27.338Z,18.60
2022-07-26T23:16:00.073Z,18.50
2022-07-26T23:18:27.715Z,18.50
2022-07-26T23:20:54.556Z,18.50
2022-07-26T23:23:21.529Z,18.30
2022-07-26T23:25:51.210Z,18.30
2022-07-26T23:28:35.964Z,18.20
2022-07-26T23:31:05.886Z,18.10
2022-07-26T23:33:50.501Z,18.10
2022-07-26T23:36:19.744Z,18.10
2022-07-26T23:38:46.545Z,18.00
2022-07-26T23:41:13.346Z,18.00
2022-07-26T23:43:40.165Z,17.90
2022-07-26T23:46:06.986Z,18.00
2022-07-26T23:48:33.830Z,17.90
2022-07-26T23:51:00.758Z,18.10
2022-07-26T23:53:27.583Z,18.10
2022-07-26T23:55:54.594Z,18.10
2022-07-26T23:58:21.454Z,18.10
